Time;durP1;ratioP1;P1;durP2;ratioP2;P2;SDS_P1;SDS_P2;PMS_P1;PMS_P2;Temp;Humidity;BMP_temperature;BMP_pressure;BME280_temperature;BME280_humidity;BME280_pressure;Samples;Min_cycle;Max_cycle;Signal;HPM_P1;HPM_P2
2022/03/01 00:02:02;;;;;;;8.30;5.75;;;10.50;99.90;;;;;;5036706;28;20042;-52
2022/03/01 00:04:32;;;;;;;9.05;6.47;;;10.50;99.90;;;;;;5037939;28;20048;-52
2022/03/01 00:06:59;;;;;;;9.05;5.93;;;10.50;99.90;;;;;;5032001;28;20037;-56
2022/03/01 00:09:27;;;;;;;7.15;5.85;;;10.50;99.90;;;;;;5035636;28;20698;-52
2022/03/01 00:11:57;;;;;;;8.70;6.50;;;10.50;99.90;;;;;;5038213;28;20459;-50
2022/03/01 00:14:24;;;;;;;9.13;6.53;;;10.50;99.90;;;;;;5034240;28;20078;-51
2022/03/01 00:16:50;;;;;;;7.75;6.05;;;10.50;99.90;;;;;;5035585;28;20071;-50
2022/03/01 09:21:08;;;;;;;9.75;8.68;;;8.40;99.90;;;;;;5070569;28;20383;-47
2022/03/01 09:23:39;;;;;;;10.88;8.75;;;8.30;99.90;;;;;;5044294;28;20073;-47
2022/03/01 09:26:06;;;;;;;9.30;8.25;;;8.40;99.90;;;;;;5050638;28;20442;-53
2022/03/01 09:28:32;;;;;;;9.30;8.07;;;8.40;99.90;;;;;;5040883;28;20037;-44
2022/03/01 09:30:59;;;;;;;11.70;6.75;;;8.50;99.90;;;;;;5052584;28;20056;-46
2022/03/01 09:33:26;;;;;;;8.98;6.55;;;8.50;99.90;;;;;;5050043;28;20075;-48
2022/03/01 09:35:53;;;;;;;8.07;7.28;;;8.50;99.90;;;;;;5050198;28;20496;-50
2022/03/01 09:38:20;;;;;;;9.73;6.72;;;8.60;99.90;;;;;;5051388;28;20503;-49
2022/03/01 09:40:47;;;;;;;7.28;6.57;;;8.60;99.90;;;;;;5050044;28;20037;-52
2022/03/01 09:43:15;;;;;;;7.90;7.10;;;8.60;99.90;;;;;;5049975;28;20092;-48
2022/03/01 09:45:41;;;;;;;8.18;7.25;;;8.70;99.90;;;;;;5049670;28;20087;-49
2022/03/01 09:48:08;;;;;;;9.02;7.70;;;8.60;99.90;;;;;;5049285;28;20041;-49
2022/03/01 09:50:35;;;;;;;8.40;7.55;;;8.70;99.90;;;;;;5056099;28;20045;-49
2022/03/01 09:53:02;;;;;;;8.70;7.75;;;8.70;99.90;;;;;;5049656;28;20056;-46
2022/03/01 09:55:29;;;;;;;9.13;8.20;;;8.70;99.90;;;;;;5049149;28;20148;-44
2022/03/01 09:57:58;;;;;;;10.93;8.55;;;8.70;99.90;;;;;;5054602;28;20056;-47
2022/03/01 10:00:26;;;;;;;10.60;8.65;;;8.80;99.90;;;;;;5049188;28;20053;-47
2022/03/01 10:02:52;;;;;;;9.00;7.85;;;8.80;99.90;;;;;;5049267;28;20136;-52
2022/03/01 10:05:19;;;;;;;11.27;9.80;;;8.70;99.90;;;;;;5049414;28;20091;-50
2022/03/01 10:07:48;;;;;;;11.32;9.85;;;8.70;99.90;;;;;;5049385;28;20033;-45
2022/03/01 10:10:18;;;;;;;13.85;10.55;;;8.70;99.90;;;;;;5054526;28;20045;-46
2022/03/01 10:12:45;;;;;;;13.38;10.88;;;8.60;99.90;;;;;;5047997;28;20401;-47
2022/03/01 10:15:13;;;;;;;13.80;10.48;;;8.60;99.90;;;;;;5045845;28;20056;-47
2022/03/01 10:17:40;;;;;;;13.18;11.10;;;8.60;99.90;;;;;;5049250;28;20095;-45
2022/03/01 10:20:07;;;;;;;11.93;9.98;;;8.70;99.90;;;;;;5052080;28;20058;-45
2022/03/01 10:22:34;;;;;;;13.48;10.73;;;8.70;99.90;;;;;;5054147;28;20045;-43
2022/03/01 10:25:01;;;;;;;11.63;10.18;;;8.70;99.90;;;;;;5049061;28;20052;-48
2022/03/01 10:27:28;;;;;;;11.38;10.18;;;8.70;99.90;;;;;;5049182;28;20068;-47
2022/03/01 10:29:55;;;;;;;12.60;10.95;;;8.70;99.90;;;;;;5048836;28;20041;-47
2022/03/01 10:32:22;;;;;;;12.07;10.27;;;8.80;99.90;;;;;;5036482;28;20488;-54
2022/03/01 10:34:49;;;;;;;13.38;10.30;;;8.80;99.90;;;;;;5039923;28;20045;-56
2022/03/01 10:37:16;;;;;;;14.43;10.88;;;8.80;99.90;;;;;;5031391;28;20037;-54
2022/03/01 10:39:42;;;;;;;14.18;11.32;;;8.70;99.90;;;;;;5044249;28;20033;-56
2022/03/01 10:42:09;;;;;;;13.52;12.07;;;8.80;99.90;;;;;;5047362;28;20067;-51
2022/03/01 10:44:36;;;;;;;15.38;12.43;;;8.80;99.90;;;;;;5041356;28;20037;-56
2022/03/01 10:47:03;;;;;;;12.88;11.15;;;8.80;99.90;;;;;;5035352;28;20068;-51
2022/03/01 10:49:31;;;;;;;14.88;11.27;;;8.80;99.90;;;;;;5035021;28;20052;-48
2022/03/01 10:51:58;;;;;;;14.00;12.02;;;8.80;99.90;;;;;;5035465;28;20073;-52
2022/03/01 10:54:25;;;;;;;13.68;10.88;;;8.80;99.90;;;;;;5035231;28;20048;-54
2022/03/01 10:56:55;;;;;;;12.85;11.10;;;8.70;99.90;;;;;;5035366;28;20041;-47
2022/03/01 10:59:22;;;;;;;12.73;10.77;;;8.70;99.90;;;;;;5034900;28;20484;-53
2022/03/01 11:01:49;;;;;;;15.43;11.00;;;8.60;99.90;;;;;;5035183;28;20418;-48
2022/03/01 11:04:16;;;;;;;14.00;11.93;;;8.60;99.90;;;;;;5035066;28;20069;-48
2022/03/01 11:06:43;;;;;;;15.95;12.02;;;8.70;99.90;;;;;;5035005;28;20126;-56
2022/03/01 11:09:10;;;;;;;13.10;11.50;;;8.70;99.90;;;;;;5034897;28;20037;-55
2022/03/01 11:11:37;;;;;;;16.13;12.15;;;8.70;99.90;;;;;;5033688;28;20041;-53
2022/03/01 11:14:04;;;;;;;14.52;12.23;;;8.70;99.90;;;;;;5036995;28;20116;-49
2022/03/01 11:16:30;;;;;;;13.45;11.63;;;8.70;99.90;;;;;;5034816;28;20396;-50
2022/03/01 11:18:57;;;;;;;13.50;11.93;;;8.70;99.90;;;;;;5034560;28;20037;-50
2022/03/01 11:21:24;;;;;;;16.13;12.68;;;8.70;99.90;;;;;;5034571;28;20042;-49
2022/03/01 11:23:51;;;;;;;13.98;11.93;;;8.80;99.90;;;;;;5032843;28;20111;-46
2022/03/01 11:26:21;;;;;;;15.50;12.48;;;8.80;99.90;;;;;;5034570;28;20116;-52
2022/03/01 11:28:47;;;;;;;14.95;11.80;;;8.80;99.90;;;;;;5034073;28;20040;-51
2022/03/01 11:31:15;;;;;;;13.43;10.65;;;8.80;99.90;;;;;;5034047;28;20045;-50
2022/03/01 11:33:42;;;;;;;12.80;10.65;;;8.70;99.90;;;;;;5033936;28;20049;-46
2022/03/01 11:36:08;;;;;;;12.13;10.32;;;8.70;99.90;;;;;;5034168;28;20045;-49
2022/03/01 11:38:35;;;;;;;12.82;10.13;;;8.70;99.90;;;;;;5033172;28;20045;-49
2022/03/01 11:41:04;;;;;;;11.57;10.13;;;8.70;99.90;;;;;;5033990;28;20041;-52
2022/03/01 11:43:32;;;;;;;13.75;11.20;;;8.70;99.90;;;;;;5034225;28;20060;-50
2022/03/01 11:45:58;;;;;;;12.00;10.32;;;8.70;99.90;;;;;;5038789;28;20041;-50
2022/03/01 11:48:25;;;;;;;11.93;10.65;;;8.70;99.90;;;;;;5033842;28;20068;-50
2022/03/01 11:50:52;;;;;;;11.50;9.95;;;8.80;99.90;;;;;;5026181;28;20049;-55
2022/03/01 11:53:19;;;;;;;10.18;9.10;;;8.80;99.90;;;;;;5026786;28;20523;-47
2022/03/01 11:55:46;;;;;;;11.23;8.95;;;8.80;99.90;;;;;;5033435;28;20048;-50
2022/03/01 11:58:13;;;;;;;11.60;8.68;;;8.80;99.90;;;;;;5032572;28;20524;-50
2022/03/01 12:00:40;;;;;;;10.57;8.73;;;8.70;99.90;;;;;;5031150;28;20053;-53
2022/03/01 12:03:07;;;;;;;10.98;8.98;;;8.70;99.90;;;;;;5025964;28;20069;-48
2022/03/01 12:05:36;;;;;;;11.55;9.65;;;8.80;99.90;;;;;;5033730;28;20045;-53
2022/03/01 12:08:03;;;;;;;9.75;8.75;;;8.80;99.90;;;;;;5035461;28;20447;-51
2022/03/01 12:10:44;;;;;;;10.30;7.80;;;8.80;99.90;;;;;;5031097;28;20407;-49
2022/03/01 12:13:11;;;;;;;8.80;7.90;;;8.80;99.90;;;;;;5033634;28;20041;-47
2022/03/01 12:15:40;;;;;;;10.73;8.05;;;8.80;99.90;;;;;;5033512;28;20047;-47
2022/03/01 12:18:07;;;;;;;9.20;8.07;;;8.90;99.90;;;;;;5033405;28;20048;-47
2022/03/01 12:20:33;;;;;;;8.27;7.45;;;8.90;99.90;;;;;;5032796;28;20487;-49
2022/03/01 12:23:02;;;;;;;8.00;7.20;;;8.90;99.90;;;;;;5032162;28;20472;-52
2022/03/01 12:25:29;;;;;;;8.27;7.35;;;9.00;99.90;;;;;;5033318;28;20042;-54
2022/03/01 12:27:56;;;;;;;7.43;6.72;;;9.00;99.90;;;;;;5033168;28;20435;-52
2022/03/01 12:30:23;;;;;;;7.57;6.47;;;9.00;99.90;;;;;;5034866;28;20048;-53
2022/03/01 12:32:50;;;;;;;8.15;6.88;;;9.00;99.90;;;;;;5033229;28;20042;-54
2022/03/01 12:35:17;;;;;;;9.27;7.18;;;8.90;99.90;;;;;;5033111;28;20411;-54
2022/03/01 12:37:44;;;;;;;8.13;6.82;;;9.00;99.90;;;;;;5032940;28;20112;-51
2022/03/01 12:40:10;;;;;;;7.45;6.65;;;9.00;99.90;;;;;;5032600;28;20034;-50
2022/03/01 12:42:37;;;;;;;7.65;6.88;;;9.00;99.90;;;;;;5033066;28;20493;-51
2022/03/01 12:45:04;;;;;;;7.30;6.57;;;9.00;99.90;;;;;;5035836;28;20121;-53
2022/03/01 12:47:31;;;;;;;7.82;7.03;;;9.00;99.90;;;;;;5032915;28;20207;-53
2022/03/01 12:49:58;;;;;;;9.05;7.30;;;9.00;99.90;;;;;;5032615;28;20067;-50
2022/03/01 12:52:24;;;;;;;8.27;7.38;;;9.00;99.90;;;;;;5032699;28;20037;-48
2022/03/01 12:54:51;;;;;;;8.13;7.32;;;8.90;99.90;;;;;;5031218;28;20127;-53
2022/03/01 12:57:18;;;;;;;8.30;7.28;;;8.90;99.90;;;;;;5032715;28;20481;-49
2022/03/01 12:59:47;;;;;;;8.43;7.63;;;8.90;99.90;;;;;;5031125;28;20463;-48
2022/03/01 13:02:13;;;;;;;9.45;8.48;;;8.90;99.90;;;;;;5032611;28;20065;-55
2022/03/01 13:04:41;;;;;;;10.00;8.27;;;8.90;99.90;;;;;;5032724;28;20042;-49
2022/03/01 13:07:07;;;;;;;11.15;8.27;;;8.90;99.90;;;;;;5032612;28;20038;-49
2022/03/01 13:09:34;;;;;;;9.57;8.57;;;8.90;99.90;;;;;;5032266;28;20120;-52
2022/03/01 13:12:01;;;;;;;10.70;8.63;;;8.90;99.90;;;;;;5032433;28;20049;-45
2022/03/01 13:14:28;;;;;;;9.70;8.70;;;8.90;99.90;;;;;;5038187;28;20049;-56
2022/03/01 13:16:56;;;;;;;9.00;8.10;;;8.90;99.90;;;;;;5032595;28;20488;-47
2022/03/01 13:19:23;;;;;;;10.85;9.02;;;8.90;99.90;;;;;;5031686;28;20049;-48
2022/03/01 13:21:50;;;;;;;10.68;9.43;;;8.90;99.90;;;;;;5031120;28;20095;-53
2022/03/01 13:24:17;;;;;;;9.80;8.80;;;8.90;99.90;;;;;;5033885;28;20044;-48
2022/03/01 13:26:44;;;;;;;10.15;9.00;;;8.90;99.90;;;;;;5031512;28;20042;-54
2022/03/01 13:29:11;;;;;;;10.18;8.73;;;8.90;99.90;;;;;;5031961;28;20477;-51
2022/03/01 13:31:38;;;;;;;10.32;9.18;;;8.90;99.90;;;;;;5032415;28;20091;-49
2022/03/01 13:34:05;;;;;;;11.63;9.90;;;8.90;99.90;;;;;;5031974;28;20045;-56
2022/03/01 13:36:31;;;;;;;10.60;9.40;;;8.90;99.90;;;;;;5032184;28;20041;-52
2022/03/01 13:38:58;;;;;;;12.57;11.07;;;8.90;99.90;;;;;;5031805;28;20052;-51
2022/03/01 13:41:25;;;;;;;12.10;10.77;;;8.90;99.90;;;;;;5032471;28;20125;-50
2022/03/01 13:43:52;;;;;;;11.35;10.18;;;8.90;99.90;;;;;;5033640;28;20049;-50
2022/03/01 13:46:19;;;;;;;13.32;11.15;;;8.90;99.90;;;;;;5032245;28;20069;-51
2022/03/01 13:48:47;;;;;;;12.73;11.35;;;8.90;99.90;;;;;;5032112;28;20082;-53
2022/03/01 13:51:14;;;;;;;13.70;12.05;;;8.90;99.90;;;;;;5032181;28;20046;-49
2022/03/01 13:53:40;;;;;;;12.93;11.52;;;8.90;99.90;;;;;;5031209;28;20511;-55
2022/03/01 13:56:07;;;;;;;13.60;11.88;;;8.90;99.90;;;;;;5032000;28;20072;-51
2022/03/01 13:58:35;;;;;;;13.65;11.82;;;8.90;99.90;;;;;;5030166;28;20037;-54
2022/03/01 14:01:01;;;;;;;12.85;11.55;;;9.00;99.90;;;;;;5031826;28;20045;-53
2022/03/01 14:03:29;;;;;;;14.20;12.70;;;9.00;99.90;;;;;;5030616;28;20481;-49
2022/03/01 14:05:57;;;;;;;14.68;12.82;;;8.90;99.90;;;;;;5032629;28;20088;-51
2022/03/01 14:08:24;;;;;;;13.75;12.20;;;8.90;99.90;;;;;;5036404;28;20052;-50
2022/03/01 14:10:51;;;;;;;14.20;12.55;;;8.80;99.90;;;;;;5038579;28;20377;-54
2022/03/01 14:13:18;;;;;;;14.55;12.82;;;8.80;99.90;;;;;;5036326;28;20492;-54
2022/03/01 14:15:45;;;;;;;15.57;12.45;;;8.80;99.90;;;;;;5037766;28;20041;-53
2022/03/01 14:18:12;;;;;;;13.95;12.55;;;8.80;99.90;;;;;;5036332;28;20041;-51
2022/03/01 14:20:40;;;;;;;14.18;12.50;;;8.80;99.90;;;;;;5034301;28;20504;-53
2022/03/01 14:23:07;;;;;;;13.88;12.25;;;8.80;99.90;;;;;;5036220;28;20061;-54
2022/03/01 14:25:33;;;;;;;16.48;13.18;;;8.80;99.90;;;;;;5037275;28;20045;-49
2022/03/01 14:28:01;;;;;;;13.98;12.38;;;8.80;99.90;;;;;;5036079;28;20048;-51
2022/03/01 14:30:28;;;;;;;14.90;13.32;;;8.80;99.90;;;;;;5036479;28;20041;-52
2022/03/01 14:32:56;;;;;;;15.85;12.93;;;8.80;99.90;;;;;;5034491;28;20479;-50
2022/03/01 14:35:23;;;;;;;15.57;12.68;;;8.70;99.90;;;;;;5035973;28;20144;-43
2022/03/01 14:37:50;;;;;;;14.98;13.10;;;8.70;99.90;;;;;;5035913;28;20128;-48
2022/03/01 14:40:17;;;;;;;15.63;13.10;;;8.70;99.90;;;;;;5035862;28;20088;-43
2022/03/01 14:42:50;;;;;;;15.82;13.27;;;8.70;99.90;;;;;;5037615;28;20045;-50
2022/03/01 14:45:16;;;;;;;16.15;13.10;;;8.70;99.90;;;;;;5035644;28;20596;-46
2022/03/01 14:47:43;;;;;;;17.58;14.05;;;8.70;99.90;;;;;;5034294;28;20033;-51
2022/03/01 14:50:10;;;;;;;16.35;12.60;;;8.70;99.90;;;;;;5034985;28;20163;-53
2022/03/01 14:52:37;;;;;;;17.85;14.25;;;8.60;99.90;;;;;;5034507;28;20488;-48
2022/03/01 14:55:04;;;;;;;18.85;14.07;;;8.60;99.90;;;;;;5034998;28;20071;-46
2022/03/01 14:57:30;;;;;;;19.17;14.45;;;8.60;99.90;;;;;;5039953;28;20044;-49
2022/03/01 14:59:57;;;;;;;20.02;14.48;;;8.60;99.90;;;;;;5027838;28;20373;-51
2022/03/01 15:02:24;;;;;;;20.23;14.68;;;8.60;99.90;;;;;;5035132;28;20072;-49
2022/03/01 15:04:52;;;;;;;17.17;13.90;;;8.60;99.90;;;;;;5034624;28;20037;-48
2022/03/01 15:07:19;;;;;;;20.80;14.60;;;8.70;99.90;;;;;;5035050;28;20041;-47
2022/03/01 15:09:46;;;;;;;19.35;14.82;;;8.70;99.90;;;;;;5037241;28;20037;-53
2022/03/01 15:12:12;;;;;;;20.77;14.82;;;8.60;99.90;;;;;;5034680;28;20107;-50
2022/03/01 15:14:42;;;;;;;19.38;14.52;;;8.60;99.90;;;;;;5034994;28;20064;-55
2022/03/01 15:17:09;;;;;;;17.00;13.80;;;8.60;99.90;;;;;;5034930;28;20045;-55
2022/03/01 15:19:40;;;;;;;20.08;14.60;;;8.70;99.90;;;;;;5036022;28;20050;-54
2022/03/01 15:22:06;;;;;;;19.75;14.07;;;8.70;99.90;;;;;;5034868;28;20041;-49
2022/03/01 15:24:34;;;;;;;19.52;14.10;;;8.70;99.90;;;;;;5035625;28;20088;-49
2022/03/01 15:27:01;;;;;;;18.95;13.32;;;8.60;99.90;;;;;;5034498;28;20038;-49
2022/03/01 15:29:28;;;;;;;19.70;14.30;;;8.60;99.90;;;;;;5034681;28;20164;-48
2022/03/01 15:31:55;;;;;;;20.08;14.20;;;8.60;99.90;;;;;;5034522;28;20052;-51
2022/03/01 15:34:22;;;;;;;19.55;13.88;;;8.60;99.90;;;;;;5038248;28;20048;-49
2022/03/01 15:36:48;;;;;;;20.85;14.07;;;8.50;99.90;;;;;;5034436;28;20045;-54
2022/03/01 15:39:15;;;;;;;19.42;13.75;;;8.50;99.90;;;;;;5034413;28;20497;-48
2022/03/01 15:41:42;;;;;;;17.65;13.40;;;8.50;99.90;;;;;;5028105;28;20073;-48
2022/03/01 15:44:09;;;;;;;19.30;13.13;;;8.50;99.90;;;;;;5027804;28;20037;-49
2022/03/01 15:46:36;;;;;;;19.60;13.18;;;8.50;99.90;;;;;;5034371;28;20044;-53
2022/03/01 15:49:03;;;;;;;19.23;13.75;;;8.50;99.90;;;;;;5027464;28;20041;-50
2022/03/01 15:51:30;;;;;;;18.08;13.60;;;8.50;99.90;;;;;;5034229;28;20060;-53
2022/03/01 15:54:01;;;;;;;17.33;13.02;;;8.50;99.90;;;;;;5034057;28;20552;-53
2022/03/01 15:56:28;;;;;;;17.70;14.02;;;8.50;99.90;;;;;;5034162;28;20041;-49
2022/03/01 15:58:55;;;;;;;18.58;13.82;;;8.50;99.90;;;;;;5027483;28;20042;-51
2022/03/01 16:01:22;;;;;;;16.80;13.50;;;8.50;99.90;;;;;;5027648;28;20038;-51
2022/03/01 16:03:49;;;;;;;17.42;12.82;;;8.50;99.90;;;;;;5033985;28;20037;-47
2022/03/01 16:06:16;;;;;;;20.70;14.15;;;8.50;99.90;;;;;;5033915;28;20042;-47
2022/03/01 16:08:42;;;;;;;19.27;12.80;;;8.50;99.90;;;;;;5033899;28;20461;-48
2022/03/01 16:11:09;;;;;;;14.02;10.20;;;8.40;99.90;;;;;;5037542;28;20041;-52
2022/03/01 16:13:36;;;;;;;18.35;11.30;;;8.40;99.90;;;;;;5033791;28;20042;-46
2022/03/01 16:16:04;;;;;;;17.90;11.88;;;8.30;99.90;;;;;;5033716;28;20059;-48
2022/03/01 16:18:36;;;;;;;88.70;52.80;;;8.30;99.90;;;;;;5033561;28;20053;-49
2022/03/01 16:21:04;;;;;;;19.15;12.95;;;8.20;99.90;;;;;;5029087;28;20045;-53
2022/03/01 16:23:31;;;;;;;20.30;12.70;;;8.30;99.90;;;;;;5027215;28;20038;-47
2022/03/01 16:25:58;;;;;;;16.63;12.02;;;8.30;99.90;;;;;;5025793;28;20136;-54
2022/03/01 16:28:25;;;;;;;17.60;11.82;;;8.20;99.90;;;;;;5033369;28;20037;-47
2022/03/01 16:30:51;;;;;;;21.15;12.35;;;8.20;99.90;;;;;;5033156;28;20048;-50
2022/03/01 16:33:18;;;;;;;18.88;12.13;;;8.20;99.90;;;;;;5033381;28;20068;-51
2022/03/01 16:35:45;;;;;;;17.77;11.60;;;8.20;99.90;;;;;;5033405;28;20465;-51
2022/03/01 16:38:12;;;;;;;18.63;11.95;;;8.20;99.90;;;;;;5033238;28;20060;-52
2022/03/01 16:40:38;;;;;;;17.98;12.68;;;8.20;99.90;;;;;;5032983;28;20056;-54
2022/03/01 16:43:05;;;;;;;17.65;11.75;;;8.20;99.90;;;;;;5033279;28;20040;-50
2022/03/01 16:45:32;;;;;;;14.75;10.38;;;8.20;99.90;;;;;;5033255;28;20044;-52
2022/03/01 16:47:59;;;;;;;17.42;11.02;;;8.10;99.90;;;;;;5033067;28;20042;-53
2022/03/01 16:50:26;;;;;;;15.73;10.27;;;8.10;99.90;;;;;;5032612;28;20048;-48
2022/03/01 16:52:53;;;;;;;16.95;11.40;;;8.10;99.90;;;;;;5038742;28;20041;-46
2022/03/01 16:55:20;;;;;;;14.43;10.40;;;8.10;99.90;;;;;;5032469;28;20053;-52
2022/03/01 16:57:46;;;;;;;15.95;10.48;;;8.10;99.90;;;;;;5032892;28;20048;-52
2022/03/01 17:00:13;;;;;;;19.17;9.60;;;8.10;99.90;;;;;;5032741;28;20060;-53
2022/03/01 17:02:40;;;;;;;15.77;10.00;;;8.00;99.90;;;;;;5032583;28;20037;-53
2022/03/01 17:05:09;;;;;;;14.05;9.73;;;8.00;99.90;;;;;;5032801;28;20037;-48
2022/03/01 17:07:36;;;;;;;16.52;10.60;;;8.00;99.90;;;;;;5032566;28;20033;-49
2022/03/01 17:10:02;;;;;;;14.63;9.75;;;8.00;99.90;;;;;;5032545;28;20042;-49
2022/03/01 17:12:29;;;;;;;15.90;9.95;;;8.10;99.90;;;;;;5032344;28;20045;-52
2022/03/01 17:15:00;;;;;;;14.38;9.90;;;8.10;99.90;;;;;;5032620;28;20477;-54
2022/03/01 17:17:27;;;;;;;16.33;10.25;;;8.10;99.90;;;;;;5032803;28;20052;-51
2022/03/01 17:19:54;;;;;;;14.70;9.95;;;8.00;99.90;;;;;;5033057;28;20409;-46
2022/03/01 17:22:21;;;;;;;16.35;9.23;;;8.00;99.90;;;;;;5032300;28;20037;-49
2022/03/01 17:24:47;;;;;;;14.07;9.38;;;8.00;99.90;;;;;;5033039;28;20116;-49
2022/03/01 17:27:14;;;;;;;14.43;10.38;;;8.00;99.90;;;;;;5031606;28;20055;-51
2022/03/01 17:29:41;;;;;;;14.40;9.98;;;8.00;99.90;;;;;;5032450;28;20037;-47
2022/03/01 17:32:10;;;;;;;12.95;9.25;;;8.00;99.90;;;;;;5032256;28;20489;-51
2022/03/01 17:34:38;;;;;;;15.50;10.48;;;7.90;99.90;;;;;;5032629;28;20045;-50
2022/03/01 17:37:06;;;;;;;16.40;9.48;;;8.00;99.90;;;;;;5032512;28;20116;-49
2022/03/01 17:39:33;;;;;;;14.38;9.45;;;7.90;99.90;;;;;;5032520;28;20037;-49
2022/03/01 17:42:01;;;;;;;12.38;9.02;;;8.00;99.90;;;;;;5034603;28;20041;-47
2022/03/01 17:44:27;;;;;;;13.07;9.55;;;8.00;99.90;;;;;;5041739;28;20050;-50
2022/03/01 17:46:54;;;;;;;12.43;9.48;;;7.90;99.90;;;;;;5036573;28;20044;-50
2022/03/01 17:49:21;;;;;;;10.60;8.70;;;8.00;99.90;;;;;;5036347;28;20041;-49
2022/03/01 17:51:48;;;;;;;10.55;8.90;;;7.90;99.90;;;;;;5036285;28;20041;-48
2022/03/01 17:54:15;;;;;;;12.57;10.07;;;7.90;99.90;;;;;;5036286;28;20053;-49
2022/03/01 17:56:42;;;;;;;12.63;9.65;;;8.00;99.90;;;;;;5036172;28;20444;-49
2022/03/01 17:59:09;;;;;;;13.20;9.98;;;8.00;99.90;;;;;;5036156;28;20045;-46
2022/03/01 18:01:36;;;;;;;14.20;10.02;;;8.00;99.90;;;;;;5036021;28;20042;-45
2022/03/01 18:04:03;;;;;;;12.20;10.35;;;7.90;99.90;;;;;;5036233;28;20116;-49
2022/03/01 18:06:29;;;;;;;15.02;10.98;;;7.90;99.90;;;;;;5036177;28;20550;-47
2022/03/01 18:08:56;;;;;;;13.30;10.45;;;7.90;99.90;;;;;;5036144;28;20045;-49
2022/03/01 18:11:23;;;;;;;12.02;10.30;;;7.80;99.90;;;;;;5035835;28;20037;-52
2022/03/01 18:13:50;;;;;;;12.57;11.10;;;7.90;99.90;;;;;;5037943;28;20431;-46
2022/03/01 18:16:17;;;;;;;12.27;10.68;;;7.80;99.90;;;;;;5035990;28;20045;-47
2022/03/01 18:18:48;;;;;;;12.30;10.98;;;7.90;99.90;;;;;;5035626;28;20090;-49
2022/03/01 18:21:15;;;;;;;12.38;10.20;;;7.90;99.90;;;;;;5035328;28;20513;-49
2022/03/01 18:23:42;;;;;;;14.13;11.52;;;7.90;99.90;;;;;;5035140;28;20041;-55
2022/03/01 18:26:10;;;;;;;15.90;11.90;;;7.90;99.90;;;;;;5035719;28;20033;-50
2022/03/01 18:28:37;;;;;;;13.45;11.13;;;7.90;99.90;;;;;;5035595;28;20060;-52
2022/03/01 18:31:06;;;;;;;13.88;10.75;;;7.90;99.90;;;;;;5036708;28;20132;-47
2022/03/01 18:33:33;;;;;;;14.18;11.63;;;7.80;99.90;;;;;;5035629;28;20033;-49
2022/03/01 18:36:02;;;;;;;14.82;11.52;;;7.90;99.90;;;;;;5035505;28;20045;-53
2022/03/01 18:38:29;;;;;;;13.63;11.70;;;7.90;99.90;;;;;;5035462;28;20060;-47
2022/03/01 18:40:56;;;;;;;14.25;11.98;;;7.90;99.90;;;;;;5035373;28;20088;-49
2022/03/01 18:43:22;;;;;;;13.88;11.82;;;7.90;99.90;;;;;;5035396;28;20045;-47
2022/03/01 18:45:49;;;;;;;14.82;12.68;;;7.80;99.90;;;;;;5036348;28;20049;-51
2022/03/01 18:48:16;;;;;;;15.57;13.43;;;7.80;99.90;;;;;;5038644;28;20044;-55
2022/03/01 18:50:43;;;;;;;15.25;12.63;;;7.80;99.90;;;;;;5035610;28;20041;-48
2022/03/01 18:53:10;;;;;;;14.88;13.25;;;7.80;99.90;;;;;;5035157;28;20096;-47
2022/03/01 18:55:36;;;;;;;15.25;13.20;;;7.90;99.90;;;;;;5035506;28;20496;-53
2022/03/01 18:58:03;;;;;;;15.95;13.40;;;7.90;99.90;;;;;;5035797;28;20132;-52
2022/03/01 19:00:30;;;;;;;37.15;29.98;;;7.90;99.90;;;;;;5035468;28;20049;-51
2022/03/01 19:02:57;;;;;;;16.73;13.90;;;7.90;99.90;;;;;;5035321;28;20069;-47
2022/03/01 19:05:24;;;;;;;17.63;13.18;;;7.90;99.90;;;;;;5035282;28;20037;-49
2022/03/01 19:07:51;;;;;;;18.00;13.68;;;7.90;99.90;;;;;;5035227;28;20042;-51
2022/03/01 19:10:18;;;;;;;17.48;14.90;;;7.90;99.90;;;;;;5035314;28;20045;-54
2022/03/01 19:12:45;;;;;;;15.93;13.70;;;7.90;99.90;;;;;;5035204;28;20140;-49
2022/03/01 19:15:11;;;;;;;16.48;13.73;;;7.90;99.90;;;;;;5034243;28;20048;-51
2022/03/01 19:17:38;;;;;;;19.38;14.50;;;7.90;99.90;;;;;;5034689;28;20050;-50
2022/03/01 19:20:05;;;;;;;17.33;14.10;;;7.90;99.90;;;;;;5034580;28;20064;-51
2022/03/01 19:22:32;;;;;;;16.17;14.48;;;7.90;99.90;;;;;;5035142;28;20477;-51
2022/03/01 19:24:59;;;;;;;20.42;14.30;;;7.90;99.90;;;;;;5039302;28;20120;-49
2022/03/01 19:27:25;;;;;;;18.27;14.60;;;7.90;99.90;;;;;;5034840;28;20144;-51
2022/03/01 19:29:52;;;;;;;17.75;14.43;;;7.80;99.90;;;;;;5035028;28;20404;-47
2022/03/01 19:32:19;;;;;;;21.40;15.38;;;7.80;99.90;;;;;;5034965;28;20048;-56
2022/03/01 19:34:51;;;;;;;17.88;14.48;;;7.90;99.90;;;;;;5034656;28;20128;-49
2022/03/01 19:37:17;;;;;;;17.65;14.45;;;7.90;99.90;;;;;;5034401;28;20044;-49
2022/03/01 19:39:44;;;;;;;17.13;13.68;;;7.90;99.90;;;;;;5034587;28;20037;-48
2022/03/01 19:42:12;;;;;;;15.65;13.48;;;7.90;99.90;;;;;;5034540;28;20033;-47
2022/03/01 19:44:39;;;;;;;17.60;12.65;;;7.90;99.90;;;;;;5034464;28;20041;-45
2022/03/01 19:47:06;;;;;;;16.77;13.35;;;7.90;99.90;;;;;;5036821;28;20477;-47
2022/03/01 19:49:33;;;;;;;14.95;13.32;;;7.90;99.90;;;;;;5034464;28;20057;-49
2022/03/01 19:52:00;;;;;;;15.38;11.88;;;7.90;99.90;;;;;;5034567;28;20096;-55
2022/03/01 19:54:27;;;;;;;15.15;12.55;;;7.90;99.90;;;;;;5036907;28;20041;-56
2022/03/01 19:56:53;;;;;;;17.75;13.23;;;7.90;99.90;;;;;;5034821;28;20050;-49
2022/03/01 19:59:20;;;;;;;15.15;11.90;;;7.90;99.90;;;;;;5033721;28;20041;-51
2022/03/01 20:01:47;;;;;;;13.95;12.35;;;7.90;99.90;;;;;;5033723;28;20037;-48
2022/03/01 20:04:14;;;;;;;14.80;11.20;;;7.90;99.90;;;;;;5033259;28;20074;-45
2022/03/01 20:06:41;;;;;;;13.65;11.07;;;7.90;99.90;;;;;;5033925;28;20148;-52
2022/03/01 20:09:08;;;;;;;13.40;11.18;;;7.90;99.90;;;;;;5034001;28;20033;-52
2022/03/01 20:11:34;;;;;;;12.30;11.00;;;7.90;99.90;;;;;;5027457;28;20496;-49
2022/03/01 20:14:01;;;;;;;11.68;10.18;;;7.90;99.90;;;;;;5012856;28;20153;-46
2022/03/01 20:16:28;;;;;;;10.95;9.85;;;7.90;99.90;;;;;;5027183;28;20152;-46
2022/03/01 20:18:55;;;;;;;33.17;22.35;;;7.90;99.90;;;;;;5033550;28;20034;-53
2022/03/01 20:21:22;;;;;;;13.77;11.85;;;7.90;99.90;;;;;;5038143;28;20037;-51
2022/03/01 20:23:49;;;;;;;11.00;9.90;;;7.90;99.90;;;;;;5033596;28;20038;-53
2022/03/01 20:26:16;;;;;;;10.80;9.00;;;7.90;99.90;;;;;;5031905;28;20053;-51
2022/03/01 20:28:42;;;;;;;13.15;9.05;;;7.90;99.90;;;;;;5032718;28;20043;-52
2022/03/01 20:31:10;;;;;;;10.32;8.98;;;7.80;99.90;;;;;;5033307;28;20100;-50
2022/03/01 20:33:37;;;;;;;10.23;8.52;;;7.80;99.90;;;;;;5033395;28;20488;-54
2022/03/01 20:36:04;;;;;;;13.38;11.13;;;7.80;99.90;;;;;;5033354;28;20048;-47
2022/03/01 20:38:31;;;;;;;10.60;8.52;;;7.80;99.90;;;;;;5033297;28;20037;-48
2022/03/01 20:40:58;;;;;;;11.27;9.40;;;7.80;99.90;;;;;;5033161;28;20041;-46
2022/03/01 20:43:26;;;;;;;12.23;9.20;;;7.80;99.90;;;;;;5032912;28;20528;-51
2022/03/01 20:45:52;;;;;;;10.55;8.95;;;7.80;99.90;;;;;;5033291;28;20477;-51
2022/03/01 20:48:19;;;;;;;10.00;8.93;;;7.80;99.90;;;;;;5033140;28;20049;-50
2022/03/01 20:50:46;;;;;;;11.13;9.10;;;7.80;99.90;;;;;;5033047;28;20041;-49
2022/03/01 20:53:14;;;;;;;11.80;9.75;;;7.80;99.90;;;;;;5033056;28;20041;-48
2022/03/01 20:55:40;;;;;;;10.70;9.52;;;7.80;99.90;;;;;;5033231;28;20051;-48
2022/03/01 20:58:07;;;;;;;11.63;9.73;;;7.80;99.90;;;;;;5035862;28;20411;-44
2022/03/01 21:00:34;;;;;;;12.13;9.65;;;7.80;99.90;;;;;;5032792;28;20041;-49
2022/03/01 21:03:02;;;;;;;12.35;9.70;;;7.80;99.90;;;;;;5032783;28;20499;-51
2022/03/01 21:05:33;;;;;;;13.68;11.13;;;7.80;99.90;;;;;;5032651;28;20049;-49
2022/03/01 21:08:00;;;;;;;13.43;10.05;;;7.80;99.90;;;;;;5036364;28;20046;-49
2022/03/01 21:10:27;;;;;;;10.88;9.25;;;7.80;99.90;;;;;;5032889;28;20041;-51
2022/03/01 21:12:59;;;;;;;11.65;9.82;;;7.80;99.90;;;;;;5032448;28;20041;-49
2022/03/01 21:15:26;;;;;;;11.93;9.68;;;7.80;99.90;;;;;;5030969;28;20123;-52
2022/03/01 21:17:53;;;;;;;12.57;9.18;;;7.80;99.90;;;;;;5032539;28;20489;-47
2022/03/01 21:20:21;;;;;;;13.52;10.13;;;7.80;99.90;;;;;;5033228;28;20064;-44
2022/03/01 21:22:48;;;;;;;11.82;9.68;;;7.80;99.90;;;;;;5032572;28;20041;-49
2022/03/01 21:25:14;;;;;;;11.05;9.35;;;7.80;99.90;;;;;;5032628;28;20047;-48
2022/03/01 21:27:42;;;;;;;11.85;9.27;;;7.80;99.90;;;;;;5037081;28;20037;-51
2022/03/01 21:30:10;;;;;;;12.20;9.48;;;7.80;99.90;;;;;;5032918;28;20072;-49
2022/03/01 21:32:36;;;;;;;11.65;9.07;;;7.80;99.90;;;;;;5034007;28;20053;-47
2022/03/01 21:35:03;;;;;;;11.13;8.75;;;7.80;99.90;;;;;;5033984;28;20405;-44
2022/03/01 21:37:30;;;;;;;10.27;8.60;;;7.80;99.90;;;;;;5033160;28;20095;-45
2022/03/01 21:39:57;;;;;;;11.77;8.90;;;7.80;99.90;;;;;;5032935;28;20041;-53
2022/03/01 21:42:24;;;;;;;10.60;8.57;;;7.80;99.90;;;;;;5033021;28;20041;-50
2022/03/01 21:44:51;;;;;;;10.38;7.93;;;7.80;99.90;;;;;;5033069;28;20044;-49